Time;durP1;ratioP1;P1;durP2;ratioP2;P2;SDS_P1;SDS_P2;PMS_P1;PMS_P2;Temp;Humidity;BMP_temperature;BMP_pressure;BME280_temperature;BME280_humidity;BME280_pressure;Samples;Min_cycle;Max_cycle;Signal;HPM_P1;HPM_P2
2021/08/24 00:01:11;;;;;;;;;;;27.20;98.70;;;;;;1971384;72;20201;-91
2021/08/24 00:03:41;;;;;;;;;;;27.20;99.40;;;;;;1979008;72;20131;-90
2021/08/24 00:06:11;;;;;;;;;;;27.20;99.40;;;;;;1967694;72;20130;-89
2021/08/24 00:08:47;;;;;;;;;;;27.20;99.60;;;;;;1975062;72;20169;-90
2021/08/24 00:11:18;;;;;;;;;;;27.20;99.10;;;;;;1968630;72;20266;-88
2021/08/24 00:13:48;;;;;;;;;;;27.20;99.10;;;;;;1967468;72;20157;-90
2021/08/24 00:16:21;;;;;;;;;;;27.30;99.00;;;;;;1971561;72;20232;-90
2021/08/24 00:18:51;;;;;;;;;;;27.30;98.80;;;;;;1964092;72;20236;-86
2021/08/24 00:21:21;;;;;;;;;;;27.40;98.70;;;;;;1937126;72;20184;-87
2021/08/24 00:23:50;;;;;;;;;;;27.50;97.90;;;;;;1951413;72;20294;-86
2021/08/24 00:26:20;;;;;;;;;;;27.50;97.50;;;;;;1968558;72;20165;-88
2021/08/24 00:28:55;;;;;;;;;;;27.60;98.10;;;;;;1960672;72;20389;-80
2021/08/24 00:31:25;;;;;;;;;;;27.60;98.30;;;;;;1963341;72;20494;-79
2021/08/24 00:33:55;;;;;;;;;;;27.60;98.40;;;;;;1968642;72;20149;-81
2021/08/24 00:36:24;;;;;;;;;;;27.60;98.10;;;;;;1921234;73;20235;-80
2021/08/24 00:38:54;;;;;;;;;;;27.60;98.20;;;;;;1949985;72;20177;-79
2021/08/24 00:41:25;;;;;;;;;;;27.60;98.30;;;;;;1963838;72;20153;-80
2021/08/24 00:43:55;;;;;;;;;;;27.60;98.20;;;;;;1958144;72;20157;-80
2021/08/24 00:46:26;;;;;;;;;;;27.60;98.20;;;;;;1966618;72;20195;-80
2021/08/24 00:48:56;;;;;;;;;;;27.60;98.10;;;;;;1883605;74;20315;-80
2021/08/24 00:51:27;;;;;;;;;;;27.50;98.10;;;;;;1963558;72;20114;-80
2021/08/24 00:53:58;;;;;;;;;;;27.60;98.40;;;;;;1962330;72;20223;-80
2021/08/24 00:56:28;;;;;;;;;;;27.50;98.50;;;;;;1959877;72;20178;-79
2021/08/24 00:58:58;;;;;;;;;;;27.50;98.60;;;;;;1959369;72;20286;-80
2021/08/24 01:01:28;;;;;;;;;;;27.50;98.70;;;;;;1960912;72;20491;-79
2021/08/24 01:03:59;;;;;;;;;;;27.50;98.80;;;;;;1959587;72;20185;-78
2021/08/24 01:06:30;;;;;;;;;;;27.50;98.80;;;;;;1968842;71;20568;-79
2021/08/24 01:09:02;;;;;;;;;;;27.50;98.70;;;;;;1938851;72;20125;-79
2021/08/24 01:11:33;;;;;;;;;;;27.60;98.60;;;;;;1956835;72;20171;-79
2021/08/24 01:14:02;;;;;;;;;;;27.60;98.70;;;;;;1948613;71;20232;-79
2021/08/24 01:16:32;;;;;;;;;;;27.60;98.90;;;;;;1960840;72;20191;-78
2021/08/24 01:19:03;;;;;;;;;;;27.70;99.00;;;;;;1956116;72;20126;-78
2021/08/24 01:21:34;;;;;;;;;;;27.70;98.60;;;;;;1930416;72;20214;-80
2021/08/24 01:24:05;;;;;;;;;;;27.70;98.60;;;;;;1924809;72;20215;-79
2021/08/24 01:26:36;;;;;;;;;;;27.80;98.40;;;;;;1931336;73;20197;-79
2021/08/24 01:29:07;;;;;;;;;;;27.80;98.20;;;;;;1935392;72;20267;-80
2021/08/24 01:31:38;;;;;;;;;;;27.90;98.20;;;;;;1935026;73;20189;-79
2021/08/24 01:34:08;;;;;;;;;;;28.10;98.40;;;;;;1923786;72;20263;-79
2021/08/24 01:36:39;;;;;;;;;;;28.20;98.40;;;;;;1927680;72;20212;-80
2021/08/24 01:39:10;;;;;;;;;;;28.30;98.30;;;;;;1935881;72;20167;-80
2021/08/24 01:41:41;;;;;;;;;;;28.40;98.20;;;;;;1937351;72;20231;-78
2021/08/24 01:44:21;;;;;;;;;;;28.40;97.80;;;;;;1933821;73;20126;-80
2021/08/24 01:46:52;;;;;;;;;;;28.50;97.70;;;;;;1874654;75;20208;-80
2021/08/24 01:49:23;;;;;;;;;;;28.50;97.70;;;;;;1933738;72;20218;-80
2021/08/24 01:51:53;;;;;;;;;;;28.50;97.70;;;;;;1879578;76;20235;-80
2021/08/24 01:54:24;;;;;;;;;;;28.50;97.60;;;;;;1934876;73;20549;-79
2021/08/24 01:56:55;;;;;;;;;;;28.50;97.30;;;;;;1938313;73;20206;-79
2021/08/24 01:59:26;;;;;;;;;;;28.60;97.50;;;;;;1920686;73;20541;-79
2021/08/24 02:01:57;;;;;;;;;;;28.60;98.00;;;;;;1930317;72;20193;-79
2021/08/24 02:04:28;;;;;;;;;;;28.50;97.60;;;;;;1936819;72;20225;-79
2021/08/24 02:06:58;;;;;;;;;;;28.60;97.60;;;;;;1927374;73;20175;-81
2021/08/24 02:09:29;;;;;;;;;;;28.60;97.60;;;;;;1935279;72;20398;-78
2021/08/24 02:11:59;;;;;;;;;;;28.60;97.50;;;;;;1928384;73;20189;-79
2021/08/24 02:14:30;;;;;;;;;;;28.70;97.30;;;;;;1930614;72;20179;-79
2021/08/24 02:17:03;;;;;;;;;;;28.60;97.30;;;;;;1925299;73;20129;-79
2021/08/24 02:19:33;;;;;;;;;;;28.70;97.30;;;;;;1942232;72;20205;-79
2021/08/24 02:22:06;;;;;;;;;;;28.80;97.60;;;;;;1954568;72;20225;-79
2021/08/24 02:24:37;;;;;;;;;;;29.00;97.10;;;;;;1956977;72;20170;-82
2021/08/24 02:27:07;;;;;;;;;;;29.10;97.10;;;;;;1967652;72;20542;-80
2021/08/24 02:29:37;;;;;;;;;;;29.20;96.80;;;;;;1963622;72;20284;-78
2021/08/24 02:32:08;;;;;;;;;;;29.30;96.50;;;;;;1969701;72;20650;-79
2021/08/24 02:34:44;;;;;;;;;;;29.40;96.30;;;;;;1959574;72;20211;-80
2021/08/24 02:37:11;;;;;;;;;;;29.60;96.20;;;;;;1968158;72;20390;-80
2021/08/24 02:39:42;;;;;;;;;;;29.70;96.10;;;;;;1967231;71;20295;-81
2021/08/24 02:42:13;;;;;;;;;;;29.80;95.90;;;;;;1944250;72;20464;-81
2021/08/24 02:44:44;;;;;;;;;;;29.90;95.50;;;;;;1950703;72;20150;-80
2021/08/24 02:47:14;;;;;;;;;;;30.00;95.50;;;;;;1958275;72;20215;-80
2021/08/24 02:49:44;;;;;;;;;;;30.00;95.40;;;;;;1958637;72;20518;-80
2021/08/24 02:52:14;;;;;;;;;;;30.10;95.30;;;;;;1963612;72;20237;-79
2021/08/24 02:54:45;;;;;;;;;;;30.20;94.90;;;;;;1954351;72;20204;-80
2021/08/24 02:57:15;;;;;;;;;;;30.40;94.10;;;;;;1965575;72;20179;-81
2021/08/24 02:59:45;;;;;;;;;;;30.50;94.50;;;;;;1954320;72;20563;-81
2021/08/24 03:02:14;;;;;;;;;;;30.60;94.10;;;;;;1958272;72;20202;-81
2021/08/24 03:04:45;;;;;;;;;;;30.80;94.10;;;;;;1963123;72;20189;-81
2021/08/24 03:07:16;;;;;;;;;;;31.00;94.00;;;;;;1950003;72;20138;-81
2021/08/24 03:09:46;;;;;;;;;;;31.00;93.60;;;;;;1951449;72;20155;-78
2021/08/24 03:12:17;;;;;;;;;;;31.10;93.50;;;;;;1944813;72;20474;-80
2021/08/24 03:14:48;;;;;;;;;;;31.10;93.40;;;;;;1949725;72;20179;-79
2021/08/24 03:17:19;;;;;;;;;;;31.20;93.10;;;;;;1941076;72;20188;-80
2021/08/24 03:19:53;;;;;;;;;;;31.30;93.30;;;;;;1954731;72;20981;-79
2021/08/24 03:22:20;;;;;;;;;;;31.30;92.90;;;;;;1956596;72;20241;-79
2021/08/24 03:24:50;;;;;;;;;;;31.50;93.30;;;;;;1936798;72;20718;-77
2021/08/24 03:27:21;;;;;;;;;;;31.50;93.10;;;;;;1924995;72;20489;-78
2021/08/24 03:29:52;;;;;;;;;;;31.60;92.40;;;;;;1936258;72;20209;-79
2021/08/24 03:32:21;;;;;;;;;;;31.60;92.60;;;;;;1941584;72;20202;-79
2021/08/24 03:34:51;;;;;;;;;;;31.70;92.10;;;;;;1936984;72;20158;-79
2021/08/24 03:37:21;;;;;;;;;;;31.70;91.80;;;;;;1936881;74;20124;-78
2021/08/24 03:39:50;;;;;;;;;;;31.60;92.30;;;;;;1939969;72;20214;-79
2021/08/24 03:42:20;;;;;;;;;;;31.60;91.90;;;;;;1922229;74;20164;-80
2021/08/24 03:44:54;;;;;;;;;;;31.60;91.60;;;;;;1962457;72;20143;-80
2021/08/24 03:47:26;;;;;;;;;;;31.60;91.70;;;;;;1923122;74;20191;-80
2021/08/24 03:50:06;;;;;;;;;;;31.70;91.80;;;;;;1929619;72;20193;-80
2021/08/24 03:52:41;;;;;;;;;;;31.80;91.40;;;;;;1922942;74;20120;-79
2021/08/24 03:55:11;;;;;;;;;;;31.90;91.40;;;;;;1923670;74;20172;-80
2021/08/24 03:57:41;;;;;;;;;;;32.00;91.40;;;;;;1933582;74;20167;-78
2021/08/24 04:00:11;;;;;;;;;;;32.00;90.90;;;;;;1922666;74;20130;-79
2021/08/24 04:02:41;;;;;;;;;;;32.10;90.90;;;;;;1919302;73;20189;-78
2021/08/24 04:05:12;;;;;;;;;;;32.10;90.70;;;;;;1933339;72;20197;-79
2021/08/24 04:07:42;;;;;;;;;;;32.10;90.90;;;;;;1924666;72;20478;-80
2021/08/24 04:10:12;;;;;;;;;;;32.20;90.90;;;;;;1929530;73;20205;-78
2021/08/24 04:12:42;;;;;;;;;;;32.30;90.50;;;;;;1927695;73;20178;-80
2021/08/24 04:15:13;;;;;;;;;;;32.40;90.00;;;;;;1936238;72;20149;-79
2021/08/24 04:17:43;;;;;;;;;;;32.60;91.40;;;;;;1947439;73;20157;-80
2021/08/24 04:20:14;;;;;;;;;;;32.60;90.90;;;;;;1923131;73;20171;-79
2021/08/24 04:22:45;;;;;;;;;;;32.70;90.50;;;;;;1929179;73;20192;-81
2021/08/24 04:25:18;;;;;;;;;;;32.70;90.10;;;;;;1930683;73;20627;-80
2021/08/24 04:27:48;;;;;;;;;;;32.60;88.30;;;;;;1925400;73;20191;-80
2021/08/24 04:30:18;;;;;;;;;;;32.50;89.40;;;;;;1936219;72;20160;-80
2021/08/24 04:32:51;;;;;;;;;;;32.40;89.70;;;;;;1948431;73;20506;-79
2021/08/24 04:35:21;;;;;;;;;;;32.30;88.70;;;;;;1951850;73;20259;-79
2021/08/24 04:37:50;;;;;;;;;;;32.30;90.30;;;;;;1939925;72;20201;-78
2021/08/24 04:40:23;;;;;;;;;;;32.30;90.10;;;;;;1934878;73;20199;-79
2021/08/24 04:42:53;;;;;;;;;;;32.40;89.10;;;;;;1932399;72;20199;-79
2021/08/24 04:45:23;;;;;;;;;;;32.40;88.20;;;;;;1952400;71;20140;-80
2021/08/24 04:47:52;;;;;;;;;;;32.30;88.40;;;;;;1929072;73;20176;-80
2021/08/24 04:50:22;;;;;;;;;;;32.10;89.20;;;;;;1926549;73;20431;-80
2021/08/24 04:52:52;;;;;;;;;;;32.00;89.60;;;;;;1929931;73;20183;-80
2021/08/24 04:55:23;;;;;;;;;;;31.80;89.90;;;;;;1938060;73;20189;-79
2021/08/24 04:58:01;;;;;;;;;;;31.80;90.10;;;;;;1928597;73;20162;-79
2021/08/24 05:00:43;;;;;;;;;;;31.70;90.40;;;;;;1943018;73;20185;-79
2021/08/24 05:03:13;;;;;;;;;;;31.70;89.30;;;;;;1948821;73;20126;-80
2021/08/24 05:05:43;;;;;;;;;;;31.70;90.60;;;;;;1934136;72;20265;-80
2021/08/24 05:08:18;;;;;;;;;;;31.70;90.20;;;;;;1923231;72;20183;-80
2021/08/24 05:10:49;;;;;;;;;;;31.60;90.30;;;;;;1960172;72;20286;-81
2021/08/24 05:13:25;;;;;;;;;;;31.60;90.40;;;;;;1950262;72;20187;-79
2021/08/24 05:15:56;;;;;;;;;;;31.60;90.00;;;;;;1950433;72;20179;-79
2021/08/24 05:18:26;;;;;;;;;;;31.70;90.50;;;;;;1951143;72;20153;-78
2021/08/24 05:20:57;;;;;;;;;;;31.90;90.40;;;;;;1944590;72;20201;-77
2021/08/24 05:23:26;;;;;;;;;;;32.00;90.20;;;;;;1934536;73;20488;-79
2021/08/24 05:25:56;;;;;;;;;;;32.00;89.20;;;;;;1928450;73;20589;-78
2021/08/24 05:28:26;;;;;;;;;;;32.00;89.70;;;;;;1937142;72;20162;-78
2021/08/24 05:30:56;;;;;;;;;;;32.00;89.90;;;;;;1933671;72;20165;-78
2021/08/24 05:33:25;;;;;;;;;;;32.10;90.10;;;;;;1876527;75;20172;-77
2021/08/24 05:35:55;;;;;;;;;;;32.20;90.00;;;;;;1882483;75;20605;-78
2021/08/24 05:38:25;;;;;;;;;;;32.30;89.70;;;;;;1881618;75;20125;-79
2021/08/24 05:40:55;;;;;;;;;;;32.40;87.70;;;;;;1883530;75;20157;-78
2021/08/24 05:43:27;;;;;;;;;;;32.50;88.30;;;;;;1884400;75;20556;-79
2021/08/24 05:46:02;;;;;;;;;;;32.50;89.10;;;;;;1879884;75;20193;-79
2021/08/24 05:48:31;;;;;;;;;;;32.50;86.60;;;;;;1881482;75;20235;-81
2021/08/24 05:51:05;;;;;;;;;;;32.50;86.60;;;;;;1879162;75;20188;-79
2021/08/24 05:53:35;;;;;;;;;;;32.40;87.00;;;;;;1883240;75;20166;-78
2021/08/24 05:56:08;;;;;;;;;;;32.40;88.10;;;;;;1883621;75;20656;-78
2021/08/24 05:58:39;;;;;;;;;;;32.40;88.20;;;;;;1883217;75;20205;-81
2021/08/24 06:01:15;;;;;;;;;;;32.40;89.00;;;;;;1880750;75;20421;-78
2021/08/24 06:03:48;;;;;;;;;;;32.50;88.60;;;;;;1882148;74;20471;-80
2021/08/24 06:06:19;;;;;;;;;;;32.60;88.40;;;;;;1875963;75;20603;-80
2021/08/24 06:08:49;;;;;;;;;;;32.60;87.80;;;;;;1876300;75;20228;-80
2021/08/24 06:11:20;;;;;;;;;;;32.60;87.20;;;;;;1879066;75;20170;-79
2021/08/24 06:13:50;;;;;;;;;;;32.60;87.80;;;;;;1876458;75;20227;-80
2021/08/24 06:16:20;;;;;;;;;;;32.60;89.00;;;;;;1872413;75;20176;-79
2021/08/24 06:18:59;;;;;;;;;;;32.70;87.90;;;;;;1882089;75;20154;-79
2021/08/24 06:21:44;;;;;;;;;;;32.80;85.90;;;;;;1874910;75;20234;-79
2021/08/24 06:24:14;;;;;;;;;;;32.90;86.40;;;;;;1866637;75;20127;-80
2021/08/24 06:26:44;;;;;;;;;;;33.00;88.10;;;;;;1867685;75;20163;-79
2021/08/24 06:29:16;;;;;;;;;;;32.90;86.00;;;;;;1875958;75;20127;-79
2021/08/24 06:31:48;;;;;;;;;;;32.90;85.40;;;;;;1876980;75;20217;-83
2021/08/24 06:34:29;;;;;;;;;;;32.80;84.80;;;;;;1870837;75;20142;-81
2021/08/24 06:36:58;;;;;;;;;;;32.70;85.90;;;;;;1859547;75;20274;-82
2021/08/24 06:39:45;;;;;;;;;;;32.60;85.70;;;;;;1839363;75;20229;-81
2021/08/24 06:42:27;;;;;;;;;;;32.50;85.80;;;;;;1871822;75;20397;-79
2021/08/24 06:44:58;;;;;;;;;;;32.40;86.40;;;;;;1868991;75;20204;-79
2021/08/24 06:47:50;;;;;;;;;;;32.50;87.20;;;;;;1878763;75;20536;-81
2021/08/24 06:50:09;;;;;;;;;;;32.50;86.70;;;;;;1900482;74;20173;-80
2021/08/24 06:52:42;;;;;;;;;;;32.60;85.50;;;;;;1915437;74;20170;-81
2021/08/24 06:55:12;;;;;;;;;;;32.60;86.20;;;;;;1888807;75;20215;-80
2021/08/24 06:57:44;;;;;;;;;;;32.80;84.50;;;;;;1898636;75;20268;-81
2021/08/24 07:00:17;;;;;;;;;;;32.80;85.00;;;;;;1880471;75;20240;-79
2021/08/24 07:02:57;;;;;;;;;;;;;;;;;;;;;
2021/08/24 07:05:29;;;;;;;;;;;32.90;85.30;;;;;;1869969;75;20870;-81
2021/08/24 07:08:20;;;;;;;;;;;32.90;83.70;;;;;;1825006;75;20220;-80
2021/08/24 07:10:55;;;;;;;;;;;32.90;84.60;;;;;;1862894;76;20186;-81
2021/08/24 07:13:27;;;;;;;;;;;32.90;82.40;;;;;;1934274;72;20201;-80
2021/08/24 07:15:58;;;;;;;;;;;32.90;83.50;;;;;;1939575;72;20501;-81
2021/08/24 07:18:28;;;;;;;;;;;32.90;82.80;;;;;;1937934;73;20197;-81
2021/08/24 07:21:01;;;;;;;;;;;32.80;82.00;;;;;;1934416;73;20193;-80
2021/08/24 07:23:31;;;;;;;;;;;32.90;83.20;;;;;;1928943;73;20175;-82
2021/08/24 07:26:00;;;;;;;;;;;32.80;81.60;;;;;;1933980;72;20198;-81
2021/08/24 07:28:30;;;;;;;;;;;32.80;83.10;;;;;;1931991;73;20194;-80
2021/08/24 07:31:00;;;;;;;;;;;32.80;82.20;;;;;;1935930;73;20210;-80
2021/08/24 07:33:30;;;;;;;;;;;32.60;81.30;;;;;;1932737;73;20211;-78
2021/08/24 07:36:00;;;;;;;;;;;32.20;82.20;;;;;;1931026;73;20155;-80
2021/08/24 07:38:30;;;;;;;;;;;31.60;82.80;;;;;;1939079;72;20181;-79
2021/08/24 07:41:04;;;;;;;;;;;31.10;84.40;;;;;;1928118;72;20180;-79
2021/08/24 07:43:34;;;;;;;;;;;30.70;84.90;;;;;;1933621;72;20430;-80
2021/08/24 07:46:04;;;;;;;;;;;30.30;87.20;;;;;;1929732;72;20226;-81
2021/08/24 07:48:34;;;;;;;;;;;29.90;90.90;;;;;;1934417;72;20148;-80
2021/08/24 07:51:03;;;;;;;;;;;29.30;92.10;;;;;;1919564;73;20525;-81
2021/08/24 07:53:33;;;;;;;;;;;28.70;92.00;;;;;;1885094;75;20165;-80
2021/08/24 07:56:06;;;;;;;;;;;28.10;93.20;;;;;;1921626;73;20525;-79
2021/08/24 07:58:36;;;;;;;;;;;27.40;93.90;;;;;;1931425;73;20177;-76
2021/08/24 08:01:05;;;;;;;;;;;26.80;94.60;;;;;;1937241;73;20225;-76
2021/08/24 08:03:36;;;;;;;;;;;26.20;94.70;;;;;;1936512;72;20335;-76
2021/08/24 08:06:06;;;;;;;;;;;25.70;96.20;;;;;;1925528;73;20193;-76
2021/08/24 08:08:36;;;;;;;;;;;25.40;95.70;;;;;;1937039;73;20188;-80
2021/08/24 08:11:06;;;;;;;;;;;25.20;96.40;;;;;;1940553;72;20178;-81
2021/08/24 08:13:36;;;;;;;;;;;25.00;96.90;;;;;;1936028;72;20504;-79
2021/08/24 08:16:06;;;;;;;;;;;25.00;97.10;;;;;;1935283;73;20142;-77
2021/08/24 08:18:36;;;;;;;;;;;25.00;97.70;;;;;;1942933;72;20429;-78
2021/08/24 08:21:08;;;;;;;;;;;25.00;98.30;;;;;;1955243;72;20202;-78
2021/08/24 08:23:39;;;;;;;;;;;25.10;98.60;;;;;;1956180;72;20213;-78
2021/08/24 08:26:09;;;;;;;;;;;25.00;98.60;;;;;;1944008;72;20239;-79
2021/08/24 08:28:38;;;;;;;;;;;25.00;99.30;;;;;;1934194;72;20156;-79
2021/08/24 08:31:09;;;;;;;;;;;25.00;99.90;;;;;;1939150;72;20203;-79
2021/08/24 08:33:39;;;;;;;;;;;24.90;99.90;;;;;;1931079;72;20174;-78
2021/08/24 08:36:10;;;;;;;;;;;24.90;99.90;;;;;;1932946;72;20258;-79
2021/08/24 08:38:40;;;;;;;;;;;24.90;99.90;;;;;;1935828;72;20217;-78
2021/08/24 08:41:11;;;;;;;;;;;25.00;99.90;;;;;;1927156;73;20449;-79
2021/08/24 08:43:41;;;;;;;;;;;25.00;99.90;;;;;;1941092;72;20291;-78
2021/08/24 08:46:14;;;;;;;;;;;25.10;99.90;;;;;;1924642;73;20205;-78
2021/08/24 08:48:45;;;;;;;;;;;25.20;99.90;;;;;;1936922;73;20757;-78
2021/08/24 08:51:16;;;;;;;;;;;25.30;99.90;;;;;;1937755;72;20168;-79
2021/08/24 08:53:47;;;;;;;;;;;25.40;99.90;;;;;;1940168;72;20211;-79
2021/08/24 08:56:17;;;;;;;;;;;25.50;99.90;;;;;;1933032;72;20466;-80
2021/08/24 08:58:48;;;;;;;;;;;25.80;99.90;;;;;;1931058;72;20189;-80
2021/08/24 09:01:19;;;;;;;;;;;26.00;99.90;;;;;;1937796;72;20224;-80
2021/08/24 09:03:50;;;;;;;;;;;26.10;99.90;;;;;;1934572;72;20243;-79
2021/08/24 09:06:21;;;;;;;;;;;26.30;99.90;;;;;;1931759;73;20183;-80
2021/08/24 09:08:52;;;;;;;;;;;26.50;99.90;;;;;;1940234;72;20211;-80
2021/08/24 09:11:23;;;;;;;;;;;26.70;99.90;;;;;;1939552;72;20195;-81
2021/08/24 09:13:54;;;;;;;;;;;26.90;99.90;;;;;;1936513;72;20209;-82
2021/08/24 09:16:24;;;;;;;;;;;27.10;99.90;;;;;;1931790;73;20177;-78
2021/08/24 09:18:56;;;;;;;;;;;27.20;99.90;;;;;;1933567;73;20140;-77
2021/08/24 09:21:33;;;;;;;;;;;27.20;99.70;;;;;;1942247;72;20161;-78
2021/08/24 09:24:03;;;;;;;;;;;27.30;99.10;;;;;;1923650;72;20211;-77
2021/08/24 09:26:34;;;;;;;;;;;27.40;98.90;;;;;;1934915;72;20159;-77
2021/08/24 09:29:05;;;;;;;;;;;27.50;98.90;;;;;;1926545;72;20207;-77
2021/08/24 09:31:35;;;;;;;;;;;27.50;98.50;;;;;;1932777;73;20157;-78
2021/08/24 09:34:05;;;;;;;;;;;27.50;97.90;;;;;;1925216;73;20195;-78
2021/08/24 09:36:34;;;;;;;;;;;27.50;97.20;;;;;;1952248;72;20171;-77
2021/08/24 09:39:05;;;;;;;;;;;27.50;97.70;;;;;;1944084;72;20232;-77
2021/08/24 09:41:37;;;;;;;;;;;27.50;97.40;;;;;;1949507;72;20505;-76
2021/08/24 09:44:10;;;;;;;;;;;27.50;97.40;;;;;;1937936;72;20143;-78
2021/08/24 09:46:40;;;;;;;;;;;27.50;97.30;;;;;;1924501;73;20219;-79
2021/08/24 09:49:10;;;;;;;;;;;27.60;97.90;;;;;;1947821;72;20225;-78
2021/08/24 09:51:41;;;;;;;;;;;27.60;97.70;;;;;;1937232;73;20549;-78
2021/08/24 09:54:12;;;;;;;;;;;27.60;98.00;;;;;;1926492;73;20243;-78
2021/08/24 09:56:43;;;;;;;;;;;27.60;98.40;;;;;;1930269;72;20130;-75
2021/08/24 09:59:16;;;;;;;;;;;27.60;98.60;;;;;;1924451;73;20249;-77
2021/08/24 10:01:47;;;;;;;;;;;27.60;98.80;;;;;;1918236;73;20159;-77
2021/08/24 10:04:17;;;;;;;;;;;27.60;98.80;;;;;;1930330;73;20201;-77
2021/08/24 10:06:48;;;;;;;;;;;27.70;98.80;;;;;;1929833;72;20631;-77
2021/08/24 10:09:19;;;;;;;;;;;27.70;98.70;;;;;;1931982;73;20219;-77
2021/08/24 10:14:41;;;;;;;;;;;27.80;98.90;;;;;;1747720;77;20275;-76
2021/08/24 10:17:12;;;;;;;;;;;27.80;99.10;;;;;;1915674;72;20157;-75
2021/08/24 10:20:25;;;;;;;;;;;27.80;98.50;;;;;;1931638;72;20199;-76
2021/08/24 10:26:06;;;;;;;;;;;27.80;98.60;;;;;;1789532;79;20221;-80
2021/08/24 10:28:24;;;;;;;;;;;27.80;99.00;;;;;;1853895;76;20173;-79
2021/08/24 10:30:55;;;;;;;;;;;27.80;99.00;;;;;;1894647;74;20176;-79
2021/08/24 10:34:12;;;;;;;;;;;27.70;98.80;;;;;;1903450;74;20213;-78
2021/08/24 10:36:10;;;;;;;;;;;27.70;98.70;;;;;;1884671;74;20585;-78
2021/08/24 10:38:40;;;;;;;;;;;27.70;98.80;;;;;;1898435;74;20226;-80
2021/08/24 10:41:12;;;;;;;;;;;27.60;98.70;;;;;;1897101;74;20919;-80
2021/08/24 10:43:42;;;;;;;;;;;27.60;98.70;;;;;;1867958;74;20246;-80
2021/08/24 10:46:14;;;;;;;;;;;27.60;98.60;;;;;;1871566;75;20177;-79
2021/08/24 10:48:44;;;;;;;;;;;27.60;99.20;;;;;;1885738;74;20523;-77
2021/08/24 10:51:15;;;;;;;;;;;27.60;99.00;;;;;;1858668;76;20193;-77
2021/08/24 10:53:56;;;;;;;;;;;27.50;98.90;;;;;;1878600;75;20250;-79
2021/08/24 10:56:29;;;;;;;;;;;27.50;98.80;;;;;;1883768;74;20524;-79
2021/08/24 10:59:00;;;;;;;;;;;27.60;99.00;;;;;;1871924;74;20182;-80
2021/08/24 11:01:31;;;;;;;;;;;27.60;98.90;;;;;;1884101;74;20202;-80
2021/08/24 11:04:03;;;;;;;;;;;27.60;98.80;;;;;;1873411;75;20390;-81
2021/08/24 11:06:32;;;;;;;;;;;27.60;98.70;;;;;;1896567;74;20126;-79
2021/08/24 11:09:03;;;;;;;;;;;27.60;98.60;;;;;;1886787;74;20741;-78
2021/08/24 11:11:37;;;;;;;;;;;27.60;98.50;;;;;;1885202;74;20492;-78
2021/08/24 11:14:07;;;;;;;;;;;27.60;98.60;;;;;;1890236;75;20181;-77
2021/08/24 11:16:38;;;;;;;;;;;27.50;98.50;;;;;;1889671;75;20162;-80
2021/08/24 11:19:09;;;;;;;;;;;27.50;98.50;;;;;;1886865;74;20187;-78
2021/08/24 11:21:40;;;;;;;;;;;27.50;98.50;;;;;;1876240;75;20164;-78
2021/08/24 11:24:12;;;;;;;;;;;27.50;98.50;;;;;;1888256;75;20169;-78
2021/08/24 11:26:46;;;;;;;;;;;27.50;98.60;;;;;;1884511;75;20189;-78
2021/08/24 11:29:24;;;;;;;;;;;27.50;98.50;;;;;;1898492;74;20153;-79
2021/08/24 11:31:55;;;;;;;;;;;27.50;99.00;;;;;;1870310;75;20479;-80
2021/08/24 11:34:28;;;;;;;;;;;27.50;98.80;;;;;;1881712;75;20256;-78
2021/08/24 11:37:22;;;;;;;;;;;27.40;98.70;;;;;;1873056;74;20224;-80
2021/08/24 11:39:53;;;;;;;;;;;27.40;98.80;;;;;;1899813;75;20161;-79
2021/08/24 11:42:27;;;;;;;;;;;27.40;98.70;;;;;;1890864;75;20260;-80
2021/08/24 11:45:02;;;;;;;;;;;27.40;99.20;;;;;;1876307;75;20224;-80
2021/08/24 11:47:33;;;;;;;;;;;27.40;99.20;;;;;;1876303;75;20205;-80
2021/08/24 11:50:04;;;;;;;;;;;27.40;99.40;;;;;;1874032;75;20541;-80
2021/08/24 11:52:35;;;;;;;;;;;27.40;99.30;;;;;;1933798;74;20161;-80
2021/08/24 11:55:06;;;;;;;;;;;27.40;99.10;;;;;;1869329;75;20241;-80
2021/08/24 11:57:40;;;;;;;;;;;27.30;98.90;;;;;;1884164;75;20184;-81
2021/08/24 12:00:11;;;;;;;;;;;27.30;98.80;;;;;;1878802;75;20209;-80
2021/08/24 12:02:42;;;;;;;;;;;27.30;98.40;;;;;;1883743;75;20198;-81
2021/08/24 12:05:13;;;;;;;;;;;27.20;98.20;;;;;;1871628;75;20483;-81
2021/08/24 12:07:44;;;;;;;;;;;27.20;98.20;;;;;;1882545;75;20236;-80
2021/08/24 12:10:15;;;;;;;;;;;27.20;98.40;;;;;;1876624;75;20459;-80
2021/08/24 12:12:47;;;;;;;;;;;27.20;98.60;;;;;;1889918;75;20157;-79
2021/08/24 12:15:18;;;;;;;;;;;27.20;98.70;;;;;;1876188;75;20221;-81
2021/08/24 12:17:49;;;;;;;;;;;27.20;98.90;;;;;;1927067;73;20219;-80
2021/08/24 12:20:39;;;;;;;;;;;27.10;98.80;;;;;;1939625;72;20187;-82
2021/08/24 12:23:10;;;;;;;;;;;27.20;98.90;;;;;;1944922;72;20204;-81
2021/08/24 12:25:44;;;;;;;;;;;27.20;99.10;;;;;;1954727;72;20233;-80
2021/08/24 12:28:14;;;;;;;;;;;27.10;99.00;;;;;;1958454;72;20467;-80
2021/08/24 12:30:45;;;;;;;;;;;27.10;99.40;;;;;;1962925;72;20201;-81
2021/08/24 12:33:16;;;;;;;;;;;27.10;99.20;;;;;;1965608;72;20597;-78
2021/08/24 12:35:51;;;;;;;;;;;27.10;99.20;;;;;;1962195;72;20194;-82
2021/08/24 12:38:22;;;;;;;;;;;27.10;99.60;;;;;;1952835;72;20158;-80
2021/08/24 12:40:56;;;;;;;;;;;27.10;99.60;;;;;;1946035;72;20223;-79
2021/08/24 12:43:28;;;;;;;;;;;27.10;99.50;;;;;;1928156;73;20209;-80
2021/08/24 12:45:59;;;;;;;;;;;27.10;99.50;;;;;;1940178;73;20165;-79
2021/08/24 12:48:29;;;;;;;;;;;27.10;99.50;;;;;;1920161;73;20211;-78
2021/08/24 12:50:59;;;;;;;;;;;27.10;99.50;;;;;;1933866;72;20183;-78
2021/08/24 12:53:29;;;;;;;;;;;27.10;99.50;;;;;;1920205;73;20478;-78
2021/08/24 12:56:00;;;;;;;;;;;27.10;99.50;;;;;;1932701;72;20262;-79
2021/08/24 12:58:31;;;;;;;;;;;27.10;99.60;;;;;;1933974;73;20181;-79
2021/08/24 13:01:02;;;;;;;;;;;27.10;99.90;;;;;;1946013;72;20217;-79
2021/08/24 13:03:32;;;;;;;;;;;27.10;99.70;;;;;;1951420;72;20204;-78
2021/08/24 13:06:04;;;;;;;;;;;27.10;99.80;;;;;;1955559;72;20403;-77
2021/08/24 13:08:33;;;;;;;;;;;27.10;99.70;;;;;;1951385;71;20128;-80
2021/08/24 13:11:06;;;;;;;;;;;27.10;99.70;;;;;;1950987;72;20231;-80
2021/08/24 13:13:35;;;;;;;;;;;27.10;99.70;;;;;;1960147;72;20147;-94
2021/08/24 13:16:06;;;;;;;;;;;27.00;99.70;;;;;;1946824;72;20154;-94
2021/08/24 13:18:37;;;;;;;;;;;27.00;99.70;;;;;;1942761;72;20230;-93
2021/08/24 13:21:08;;;;;;;;;;;27.10;99.90;;;;;;1956610;72;20172;-93
2021/08/24 13:23:40;;;;;;;;;;;27.00;99.80;;;;;;1952527;71;20197;-91
2021/08/24 13:26:11;;;;;;;;;;;27.00;99.90;;;;;;1953310;72;20130;-93
2021/08/24 13:28:49;;;;;;;;;;;27.00;99.80;;;;;;1952838;72;20164;-93
2021/08/24 13:31:21;;;;;;;;;;;27.00;99.80;;;;;;1965514;72;20240;-93
2021/08/24 13:34:11;;;;;;;;;;;27.00;99.90;;;;;;1955187;72;20171;-92
2021/08/24 13:36:44;;;;;;;;;;;27.00;99.90;;;;;;1961435;72;20156;-93
2021/08/24 13:39:16;;;;;;;;;;;27.10;99.90;;;;;;1961945;72;20258;-93
2021/08/24 13:41:50;;;;;;;;;;;27.10;99.90;;;;;;1958061;72;20201;-94
2021/08/24 13:44:29;;;;;;;;;;;27.10;99.90;;;;;;1951606;71;20255;-94
2021/08/24 13:47:01;;;;;;;;;;;27.10;99.70;;;;;;1959736;72;20210;-93
2021/08/24 13:49:34;;;;;;;;;;;27.10;99.80;;;;;;1957469;72;20206;-93
2021/08/24 13:57:39;;;;;;;;;;;27.20;99.80;;;;;;1783334;76;20222;-90
2021/08/24 14:00:21;;;;;;;;;;;27.10;99.80;;;;;;1808975;77;20223;-90
2021/08/24 14:02:49;;;;;;;;;;;27.10;99.70;;;;;;1824378;76;20164;-90
2021/08/24 14:05:27;;;;;;;;;;;27.10;99.70;;;;;;1814331;78;20223;-90
2021/08/24 14:08:01;;;;;;;;;;;27.10;99.70;;;;;;1811179;77;20195;-90
2021/08/24 14:10:38;;;;;;;;;;;27.10;99.90;;;;;;1821727;77;20683;-91
2021/08/24 14:13:12;;;;;;;;;;;27.10;99.90;;;;;;1823761;77;20280;-90
2021/08/24 14:15:52;;;;;;;;;;;27.10;99.90;;;;;;1824328;77;20227;-91
2021/08/24 14:18:19;;;;;;;;;;;27.10;99.90;;;;;;1822789;77;20251;-89
2021/08/24 14:20:53;;;;;;;;;;;27.10;99.90;;;;;;1823330;76;20231;-90
2021/08/24 14:23:36;;;;;;;;;;;27.10;99.90;;;;;;1826188;77;20204;-89
2021/08/24 14:26:02;;;;;;;;;;;27.10;99.90;;;;;;1822045;77;20203;-90
2021/08/24 14:28:34;;;;;;;;;;;27.10;99.90;;;;;;1822335;78;20224;-88
2021/08/24 14:31:09;;;;;;;;;;;27.10;99.90;;;;;;1829494;78;20199;-90
2021/08/24 14:33:41;;;;;;;;;;;27.10;99.90;;;;;;1830607;78;20193;-90
2021/08/24 14:36:13;;;;;;;;;;;27.10;99.90;;;;;;1890646;74;20184;-89
2021/08/24 14:38:54;;;;;;;;;;;27.10;99.90;;;;;;1899724;74;20531;-89
2021/08/24 14:41:40;;;;;;;;;;;27.10;99.90;;;;;;1898023;74;20243;-90
2021/08/24 14:44:01;;;;;;;;;;;27.10;99.90;;;;;;1891213;73;20514;-89
2021/08/24 14:46:37;;;;;;;;;;;27.10;99.90;;;;;;1884364;73;20218;-90
2021/08/24 14:49:08;;;;;;;;;;;27.10;99.90;;;;;;1892928;74;20167;-90
2021/08/24 14:51:41;;;;;;;;;;;27.10;99.90;;;;;;1886215;75;20192;-88
2021/08/24 14:54:17;;;;;;;;;;;27.10;99.90;;;;;;1901125;74;20249;-89
2021/08/24 14:56:47;;;;;;;;;;;27.10;99.90;;;;;;1896487;72;20184;-89